Time,TemperatureF,DewpointF,PressureIn,WindDirection,WindDirectionDegrees,WindSpeedMPH,WindSpeedGustMPH,Humidity,HourlyPrecipIn,Conditions,Clouds,dailyrainin,SoftwareType,DateUTC
2013-03-29 00:02:00,32.7,21.9,30.31,SE,135,1.0,2.0,64,0.00,,,0.00,meteohub,2013-03-29 04:02:00,
2013-03-29 00:07:00,32.7,21.9,30.31,SE,135,1.0,2.0,64,0.00,,,0.00,meteohub,2013-03-29 04:07:00,
2013-03-29 00:08:00,32.0,21.6,30.31,SE,135,1.0,2.0,65,0.00,,,0.00,meteohub,2013-03-29 04:08:00,
2013-03-29 00:12:00,31.8,21.4,30.31,SE,135,1.0,2.0,65,0.00,,,0.00,meteohub,2013-03-29 04:12:00,
2013-03-29 00:17:00,31.5,21.4,30.31,SE,135,2.0,2.0,66,0.00,,,0.00,meteohub,2013-03-29 04:17:00,
2013-03-29 00:22:00,31.1,21.7,30.31,SE,135,2.0,2.0,68,0.00,,,0.00,meteohub,2013-03-29 04:22:00,
2013-03-29 00:27:00,30.9,21.6,30.31,SE,135,2.0,2.0,68,0.00,,,0.00,meteohub,2013-03-29 04:27:00,
2013-03-29 00:32:00,30.9,21.9,30.31,SE,135,1.0,2.0,69,0.00,,,0.00,meteohub,2013-03-29 04:32:00,
2013-03-29 00:39:00,30.9,22.3,30.31,SE,135,1.0,2.0,70,0.00,,,0.00,meteohub,2013-03-29 04:39:00,
2013-03-29 00:45:00,30.6,22.3,30.31,SE,135,2.0,2.0,71,0.00,,,0.00,meteohub,2013-03-29 04:45:00,
2013-03-29 00:51:00,30.2,21.9,30.32,SE,135,2.0,2.0,71,0.00,,,0.00,meteohub,2013-03-29 04:51:00,
2013-03-29 00:57:00,29.8,21.6,30.32,SE,135,2.0,2.0,71,0.00,,,0.00,meteohub,2013-03-29 04:57:00,
2013-03-29 01:02:00,29.7,21.4,30.32,SE,135,2.0,2.0,71,0.00,,,0.00,meteohub,2013-03-29 05:02:00,
2013-03-29 01:09:00,29.7,22.1,30.32,SE,135,1.0,2.0,73,0.00,,,0.00,meteohub,2013-03-29 05:09:00,
2013-03-29 01:15:00,29.5,21.9,30.32,SE,135,1.0,2.0,73,0.00,,,0.00,meteohub,2013-03-29 05:15:00,
2013-03-29 01:21:00,29.5,22.3,30.32,SE,135,2.0,2.0,74,0.00,,,0.00,meteohub,2013-03-29 05:21:00,
2013-03-29 01:27:00,29.5,22.3,30.32,SE,135,2.0,2.0,74,0.00,,,0.00,meteohub,2013-03-29 05:27:00,
2013-03-29 01:32:00,29.5,22.5,30.32,SE,135,2.0,2.0,75,0.00,,,0.00,meteohub,2013-03-29 05:32:00,
2013-03-29 01:37:00,29.1,21.9,30.32,SE,135,2.0,2.0,74,0.00,,,0.00,meteohub,2013-03-29 05:37:00,
2013-03-29 01:42:00,28.8,21.6,30.33,SE,135,2.0,2.0,74,0.00,,,0.00,meteohub,2013-03-29 05:42:00,
2013-03-29 01:49:00,28.9,22.1,30.32,SE,135,1.0,2.0,75,0.00,,,0.00,meteohub,2013-03-29 05:49:00,
2013-03-29 01:55:00,28.8,22.1,30.32,SE,135,2.0,2.0,76,0.00,,,0.00,meteohub,2013-03-29 05:55:00,
2013-03-29 02:01:00,28.4,21.7,30.32,SE,135,0.0,2.0,76,0.00,,,0.00,meteohub,2013-03-29 06:01:00,
2013-03-29 02:07:00,28.4,21.7,30.32,SE,135,0.0,2.0,76,0.00,,,0.00,meteohub,2013-03-29 06:07:00,
2013-03-29 02:12:00,28.4,22.1,30.32,SE,135,0.0,2.0,77,0.00,,,0.00,meteohub,2013-03-29 06:12:00,
2013-03-29 02:17:00,28.6,22.3,30.32,SE,135,0.0,1.0,77,0.00,,,0.00,meteohub,2013-03-29 06:17:00,
2013-03-29 02:22:00,28.0,21.7,30.32,SE,135,0.0,0.0,77,0.00,,,0.00,meteohub,2013-03-29 06:22:00,
2013-03-29 02:27:00,27.9,21.2,30.32,SE,135,0.0,0.0,76,0.00,,,0.00,meteohub,2013-03-29 06:27:00,
2013-03-29 02:32:00,27.7,21.4,30.31,SE,135,0.0,0.0,77,0.00,,,0.00,meteohub,2013-03-29 06:32:00,
2013-03-29 02:38:00,27.5,21.2,30.31,SE,135,0.0,0.0,77,0.00,,,0.00,meteohub,2013-03-29 06:38:00,
2013-03-29 02:44:00,27.3,21.4,30.32,SE,135,0.0,0.0,78,0.00,,,0.00,meteohub,2013-03-29 06:44:00,
2013-03-29 02:50:00,27.1,21.2,30.32,SE,135,0.0,0.0,78,0.00,,,0.00,meteohub,2013-03-29 06:50:00,
2013-03-29 02:56:00,27.1,21.6,30.32,SE,135,0.0,0.0,79,0.00,,,0.00,meteohub,2013-03-29 06:56:00,
2013-03-29 03:02:00,27.0,21.4,30.32,SE,135,0.0,0.0,79,0.00,,,0.00,meteohub,2013-03-29 07:02:00,
2013-03-29 03:07:00,27.0,21.4,30.32,SE,135,0.0,0.0,79,0.00,,,0.00,meteohub,2013-03-29 07:07:00,
2013-03-29 03:14:00,26.8,21.4,30.32,SE,135,0.0,0.0,80,0.00,,,0.00,meteohub,2013-03-29 07:14:00,
2013-03-29 03:20:00,27.0,21.6,30.32,SE,135,0.0,0.0,80,0.00,,,0.00,meteohub,2013-03-29 07:20:00,
2013-03-29 03:27:00,26.6,21.2,30.32,SE,135,0.0,0.0,80,0.00,,,0.00,meteohub,2013-03-29 07:27:00,
2013-03-29 03:32:00,26.4,21.0,30.31,SE,135,0.0,0.0,80,0.00,,,0.00,meteohub,2013-03-29 07:32:00,
2013-03-29 03:39:00,26.2,20.8,30.31,SE,135,0.0,0.0,80,0.00,,,0.00,meteohub,2013-03-29 07:39:00,
2013-03-29 03:45:00,26.1,21.0,30.31,SE,135,0.0,0.0,81,0.00,,,0.00,meteohub,2013-03-29 07:45:00,
2013-03-29 03:51:00,25.9,20.8,30.31,SE,135,0.0,0.0,81,0.00,,,0.00,meteohub,2013-03-29 07:51:00,
2013-03-29 03:57:00,25.7,21.0,30.31,SE,135,0.0,0.0,82,0.00,,,0.00,meteohub,2013-03-29 07:57:00,
2013-03-29 04:05:00,25.7,21.0,30.31,SE,135,0.0,0.0,82,0.00,,,0.00,meteohub,2013-03-29 08:05:00,
2013-03-29 04:11:00,25.5,20.8,30.31,SE,135,0.0,0.0,82,0.00,,,0.00,meteohub,2013-03-29 08:11:00,
2013-03-29 04:17:00,25.5,21.0,30.31,SE,135,0.0,0.0,83,0.00,,,0.00,meteohub,2013-03-29 08:17:00,
2013-03-29 04:23:00,25.5,21.0,30.31,SE,135,0.0,0.0,83,0.00,,,0.00,meteohub,2013-03-29 08:23:00,
2013-03-29 04:29:00,25.7,21.2,30.31,SE,135,0.0,0.0,83,0.00,,,0.00,meteohub,2013-03-29 08:29:00,
2013-03-29 04:35:00,25.9,21.7,30.31,SE,135,0.0,0.0,84,0.00,,,0.00,meteohub,2013-03-29 08:35:00,
2013-03-29 04:41:00,25.9,21.7,30.31,SE,135,0.0,0.0,84,0.00,,,0.00,meteohub,2013-03-29 08:41:00,
2013-03-29 04:47:00,25.7,21.6,30.31,SE,135,0.0,0.0,84,0.00,,,0.00,meteohub,2013-03-29 08:47:00,
2013-03-29 04:52:00,25.7,21.6,30.31,SE,135,0.0,0.0,84,0.00,,,0.00,meteohub,2013-03-29 08:52:00,
2013-03-29 04:57:00,25.9,21.7,30.31,SE,135,0.0,0.0,84,0.00,,,0.00,meteohub,2013-03-29 08:57:00,
2013-03-29 05:03:00,25.9,21.7,30.32,SE,135,0.0,0.0,84,0.00,,,0.00,meteohub,2013-03-29 09:03:00,
2013-03-29 05:09:00,25.7,21.6,30.32,SE,135,0.0,0.0,84,0.00,,,0.00,meteohub,2013-03-29 09:09:00,
2013-03-29 05:15:00,25.7,21.6,30.31,SE,135,0.0,0.0,84,0.00,,,0.00,meteohub,2013-03-29 09:15:00,
2013-03-29 05:21:00,25.5,21.4,30.31,SE,135,0.0,0.0,84,0.00,,,0.00,meteohub,2013-03-29 09:21:00,
2013-03-29 05:27:00,25.3,21.2,30.31,SE,135,0.0,0.0,84,0.00,,,0.00,meteohub,2013-03-29 09:27:00,
2013-03-29 05:32:00,25.2,21.0,30.31,SE,135,0.0,0.0,84,0.00,,,0.00,meteohub,2013-03-29 09:32:00,
2013-03-29 05:37:00,25.0,20.8,30.32,SE,135,0.0,0.0,84,0.00,,,0.00,meteohub,2013-03-29 09:37:00,
2013-03-29 05:42:00,24.8,21.0,30.31,SE,135,0.0,0.0,85,0.00,,,0.00,meteohub,2013-03-29 09:42:00,
2013-03-29 05:47:00,24.8,21.0,30.32,SE,135,0.0,0.0,85,0.00,,,0.00,meteohub,2013-03-29 09:47:00,
2013-03-29 05:52:00,24.8,21.0,30.32,SE,135,0.0,0.0,85,0.00,,,0.00,meteohub,2013-03-29 09:52:00,
2013-03-29 05:57:00,24.6,20.8,30.31,SE,135,0.0,0.0,85,0.00,,,0.00,meteohub,2013-03-29 09:57:00,
2013-03-29 06:02:00,24.6,20.8,30.32,SE,135,0.0,0.0,85,0.00,,,0.00,meteohub,2013-03-29 10:02:00,
2013-03-29 06:07:00,24.4,20.7,30.32,SE,135,0.0,0.0,85,0.00,,,0.00,meteohub,2013-03-29 10:07:00,
2013-03-29 06:12:00,24.4,20.7,30.32,SE,135,0.0,0.0,85,0.00,,,0.00,meteohub,2013-03-29 10:12:00,
2013-03-29 06:17:00,24.4,20.7,30.32,SE,135,0.0,0.0,85,0.00,,,0.00,meteohub,2013-03-29 10:17:00,
2013-03-29 06:22:00,24.3,20.7,30.32,SE,135,0.0,0.0,86,0.00,,,0.00,meteohub,2013-03-29 10:22:00,
2013-03-29 06:28:00,24.1,20.5,30.32,SE,135,0.0,0.0,86,0.00,,,0.00,meteohub,2013-03-29 10:28:00,
2013-03-29 06:34:00,24.1,20.5,30.33,SE,135,0.0,0.0,86,0.00,,,0.00,meteohub,2013-03-29 10:34:00,
2013-03-29 06:40:00,23.9,20.3,30.32,SE,135,0.0,0.0,86,0.00,,,0.00,meteohub,2013-03-29 10:40:00,
2013-03-29 06:46:00,23.9,20.3,30.33,SE,135,0.0,0.0,86,0.00,,,0.00,meteohub,2013-03-29 10:46:00,
2013-03-29 06:52:00,23.7,20.1,30.33,SE,135,0.0,0.0,86,0.00,,,0.00,meteohub,2013-03-29 10:52:00,
2013-03-29 06:57:00,23.7,20.1,30.33,SE,135,0.0,0.0,86,0.00,,,0.00,meteohub,2013-03-29 10:57:00,
2013-03-29 07:02:00,23.7,20.1,30.34,SE,135,0.0,0.0,86,0.00,,,0.00,meteohub,2013-03-29 11:02:00,
2013-03-29 07:07:00,23.7,20.1,30.33,SE,135,0.0,0.0,86,0.00,,,0.00,meteohub,2013-03-29 11:07:00,
2013-03-29 07:12:00,23.7,20.5,30.34,SE,135,0.0,0.0,87,0.00,,,0.00,meteohub,2013-03-29 11:12:00,
2013-03-29 07:17:00,23.7,20.1,30.34,SE,135,0.0,0.0,86,0.00,,,0.00,meteohub,2013-03-29 11:17:00,
2013-03-29 07:22:00,23.9,20.7,30.34,SE,135,0.0,0.0,87,0.00,,,0.00,meteohub,2013-03-29 11:22:00,
2013-03-29 07:29:00,24.1,20.8,30.34,SE,135,0.0,0.0,87,0.00,,,0.00,meteohub,2013-03-29 11:29:00,
2013-03-29 07:35:00,24.3,21.0,30.34,SE,135,0.0,0.0,87,0.00,,,0.00,meteohub,2013-03-29 11:35:00,
2013-03-29 07:41:00,24.4,21.2,30.35,SE,135,0.0,0.0,87,0.00,,,0.00,meteohub,2013-03-29 11:41:00,
2013-03-29 07:47:00,24.6,21.4,30.35,SE,135,0.0,0.0,87,0.00,,,0.00,meteohub,2013-03-29 11:47:00,
2013-03-29 07:53:00,25.0,21.7,30.35,SE,135,0.0,0.0,87,0.00,,,0.00,meteohub,2013-03-29 11:53:00,
2013-03-29 07:59:00,25.3,22.1,30.35,SE,135,0.0,0.0,87,0.00,,,0.00,meteohub,2013-03-29 11:59:00,
2013-03-29 08:05:00,25.7,22.6,30.35,SE,135,0.0,0.0,88,0.00,,,0.00,meteohub,2013-03-29 12:05:00,
2013-03-29 08:11:00,26.2,23.2,30.35,SE,135,0.0,0.0,88,0.00,,,0.00,meteohub,2013-03-29 12:11:00,
2013-03-29 08:17:00,26.8,23.7,30.35,SE,135,0.0,0.0,88,0.00,,,0.00,meteohub,2013-03-29 12:17:00,
2013-03-29 08:22:00,27.3,24.3,30.35,SE,135,0.0,0.0,88,0.00,,,0.00,meteohub,2013-03-29 12:22:00,
2013-03-29 08:29:00,28.2,25.2,30.34,SE,135,0.0,0.0,88,0.00,,,0.00,meteohub,2013-03-29 12:29:00,
2013-03-29 08:35:00,28.9,25.9,30.35,SE,135,0.0,0.0,88,0.00,,,0.00,meteohub,2013-03-29 12:35:00,
2013-03-29 08:41:00,30.2,27.1,30.35,SE,135,0.0,0.0,88,0.00,,,0.00,meteohub,2013-03-29 12:41:00,
2013-03-29 08:47:00,31.3,28.2,30.35,SE,135,0.0,0.0,88,0.00,,,0.00,meteohub,2013-03-29 12:47:00,
2013-03-29 08:53:00,32.4,29.1,30.35,SE,135,0.0,0.0,88,0.00,,,0.00,meteohub,2013-03-29 12:53:00,
2013-03-29 08:59:00,34.2,30.9,30.35,NE,45,2.0,0.0,88,0.00,,,0.00,meteohub,2013-03-29 12:59:00,
2013-03-29 09:05:00,35.8,32.0,30.34,NW,315,4.0,4.0,86,0.00,,,0.00,meteohub,2013-03-29 13:05:00,
2013-03-29 09:12:00,38.1,32.7,30.34,NE,45,3.0,4.0,81,0.00,,,0.00,meteohub,2013-03-29 13:12:00,
2013-03-29 09:17:00,39.7,33.1,30.34,NE,45,2.0,4.0,77,0.00,,,0.00,meteohub,2013-03-29 13:17:00,
2013-03-29 09:24:00,41.5,33.6,30.33,NE,45,2.0,4.0,73,0.00,,,0.00,meteohub,2013-03-29 13:24:00,
2013-03-29 09:30:00,43.0,33.8,30.33,NE,45,1.0,3.0,70,0.00,,,0.00,meteohub,2013-03-29 13:30:00,
2013-03-29 09:36:00,44.6,34.3,30.33,NW,315,2.0,2.0,67,0.00,,,0.00,meteohub,2013-03-29 13:36:00,
2013-03-29 09:42:00,46.6,33.8,30.32,North,0,2.0,3.0,61,0.00,,,0.00,meteohub,2013-03-29 13:42:00,
2013-03-29 09:47:00,47.5,33.4,30.32,South,180,2.0,3.0,58,0.00,,,0.00,meteohub,2013-03-29 13:47:00,
2013-03-29 09:52:00,48.4,30.0,30.32,NE,45,4.0,4.0,49,0.00,,,0.00,meteohub,2013-03-29 13:52:00,
2013-03-29 09:57:00,49.5,29.5,30.32,NW,315,3.0,4.0,46,0.00,,,0.00,meteohub,2013-03-29 13:57:00,
2013-03-29 10:02:00,50.0,29.5,30.32,North,0,2.0,7.0,45,0.00,,,0.00,meteohub,2013-03-29 14:02:00,
2013-03-29 10:09:00,51.4,29.1,30.32,North,0,5.0,7.0,42,0.00,,,0.00,meteohub,2013-03-29 14:09:00,
2013-03-29 10:15:00,52.0,28.4,30.32,NW,315,4.0,7.0,40,0.00,,,0.00,meteohub,2013-03-29 14:15:00,
2013-03-29 10:21:00,52.7,27.9,30.31,NW,315,3.0,6.0,38,0.00,,,0.00,meteohub,2013-03-29 14:21:00,
2013-03-29 10:27:00,52.9,26.6,30.31,SW,225,3.0,5.0,36,0.00,,,0.00,meteohub,2013-03-29 14:27:00,
2013-03-29 10:33:00,53.4,27.1,30.32,NW,315,4.0,9.0,36,0.00,,,0.00,meteohub,2013-03-29 14:33:00,
2013-03-29 10:39:00,53.8,23.9,30.31,SE,135,4.0,9.0,31,0.00,,,0.00,meteohub,2013-03-29 14:39:00,
2013-03-29 10:45:00,54.1,25.0,30.31,NW,315,7.0,9.0,32,0.00,,,0.00,meteohub,2013-03-29 14:45:00,
2013-03-29 10:52:00,54.7,25.3,30.31,North,0,4.0,8.0,32,0.00,,,0.00,meteohub,2013-03-29 14:52:00,
2013-03-29 10:57:00,54.5,22.8,30.31,West,270,4.0,7.0,29,0.00,,,0.00,meteohub,2013-03-29 14:57:00,
2013-03-29 11:02:00,54.3,22.6,30.31,South,180,4.0,10.0,29,0.00,,,0.00,meteohub,2013-03-29 15:02:00,
2013-03-29 11:07:00,54.7,23.0,30.31,NE,45,6.0,10.0,29,0.00,,,0.00,meteohub,2013-03-29 15:07:00,
2013-03-29 11:13:00,54.9,21.6,30.31,East,90,6.0,10.0,27,0.00,,,0.00,meteohub,2013-03-29 15:13:00,
2013-03-29 11:19:00,55.0,22.5,30.31,West,270,4.0,8.0,28,0.00,,,0.00,meteohub,2013-03-29 15:19:00,
2013-03-29 11:25:00,55.0,21.7,30.31,North,0,8.0,8.0,27,0.00,,,0.00,meteohub,2013-03-29 15:25:00,
2013-03-29 11:31:00,55.2,22.6,30.31,SW,225,5.0,10.0,28,0.00,,,0.00,meteohub,2013-03-29 15:31:00,
2013-03-29 11:37:00,55.4,21.9,30.30,SW,225,4.0,10.0,27,0.00,,,0.00,meteohub,2013-03-29 15:37:00,
2013-03-29 11:42:00,55.9,23.4,30.30,WSW,248,4.0,10.0,28,0.00,,,0.00,meteohub,2013-03-29 15:42:00,
2013-03-29 11:49:00,56.5,21.0,30.30,South,180,7.0,8.0,25,0.00,,,0.00,meteohub,2013-03-29 15:49:00,
2013-03-29 11:55:00,55.8,21.4,30.30,South,180,3.0,7.0,26,0.00,,,0.00,meteohub,2013-03-29 15:55:00,
2013-03-29 12:02:00,56.5,21.0,30.30,NE,45,7.0,7.0,25,0.00,,,0.00,meteohub,2013-03-29 16:02:00,
2013-03-29 12:07:00,56.3,21.9,30.30,SW,225,3.0,8.0,26,0.00,,,0.00,meteohub,2013-03-29 16:07:00,
2013-03-29 12:14:00,56.5,21.9,30.29,South,180,4.0,8.0,26,0.00,,,0.00,meteohub,2013-03-29 16:14:00,
2013-03-29 12:20:00,57.0,21.6,30.29,South,180,2.0,8.0,25,0.00,,,0.00,meteohub,2013-03-29 16:20:00,
2013-03-29 12:26:00,57.0,19.6,30.28,ENE,68,8.0,8.0,23,0.00,,,0.00,meteohub,2013-03-29 16:26:00,
2013-03-29 12:32:00,56.8,19.4,30.29,NW,315,5.0,11.0,23,0.00,,,0.00,meteohub,2013-03-29 16:32:00,
2013-03-29 12:37:00,57.0,19.6,30.28,North,0,4.0,11.0,23,0.00,,,0.00,meteohub,2013-03-29 16:37:00,
2013-03-29 12:42:00,57.4,19.9,30.28,North,0,5.0,11.0,23,0.00,,,0.00,meteohub,2013-03-29 16:42:00,
2013-03-29 12:47:00,57.7,19.2,30.27,NE,45,2.0,8.0,22,0.00,,,0.00,meteohub,2013-03-29 16:47:00,
2013-03-29 12:52:00,57.4,19.9,30.27,NE,45,4.0,8.0,23,0.00,,,0.00,meteohub,2013-03-29 16:52:00,
2013-03-29 12:59:00,57.9,20.3,30.27,NNE,23,3.0,7.0,23,0.00,,,0.00,meteohub,2013-03-29 16:59:00,
2013-03-29 13:05:00,58.1,18.3,30.27,North,0,8.0,8.0,21,0.00,,,0.00,meteohub,2013-03-29 17:05:00,
2013-03-29 13:11:00,57.6,19.9,30.26,South,180,6.0,8.0,23,0.00,,,0.00,meteohub,2013-03-29 17:11:00,
2013-03-29 13:17:00,57.9,19.2,30.25,SE,135,5.0,9.0,22,0.00,,,0.00,meteohub,2013-03-29 17:17:00,
2013-03-29 13:22:00,58.6,18.9,30.25,SE,135,3.0,9.0,21,0.00,,,0.00,meteohub,2013-03-29 17:22:00,
2013-03-29 13:27:00,58.8,17.8,30.25,East,90,5.0,9.0,20,0.00,,,0.00,meteohub,2013-03-29 17:27:00,
2013-03-29 13:32:00,58.5,17.6,30.25,North,0,3.0,10.0,20,0.00,,,0.00,meteohub,2013-03-29 17:32:00,
2013-03-29 13:39:00,56.7,19.2,30.25,East,90,4.0,10.0,23,0.00,,,0.00,meteohub,2013-03-29 17:39:00,
2013-03-29 13:45:00,58.1,20.5,30.25,NW,315,4.0,7.0,23,0.00,,,0.00,meteohub,2013-03-29 17:45:00,
2013-03-29 13:51:00,58.8,17.8,30.24,SE,135,4.0,10.0,20,0.00,,,0.00,meteohub,2013-03-29 17:51:00,
2013-03-29 13:57:00,58.1,18.3,30.24,NE,45,4.0,10.0,21,0.00,,,0.00,meteohub,2013-03-29 17:57:00,
2013-03-29 14:02:00,58.3,18.5,30.23,NNE,23,8.0,8.0,21,0.00,,,0.00,meteohub,2013-03-29 18:02:00,
2013-03-29 14:07:00,59.0,18.0,30.23,North,0,9.0,9.0,20,0.00,,,0.00,meteohub,2013-03-29 18:07:00,
2013-03-29 14:13:00,59.5,18.5,30.23,NW,315,3.0,9.0,20,0.00,,,0.00,meteohub,2013-03-29 18:13:00,
2013-03-29 14:19:00,59.0,19.0,30.22,NNE,23,3.0,9.0,21,0.00,,,0.00,meteohub,2013-03-29 18:19:00,
2013-03-29 14:25:00,59.4,17.1,30.22,East,90,7.0,9.0,19,0.00,,,0.00,meteohub,2013-03-29 18:25:00,
2013-03-29 14:31:00,60.1,18.9,30.22,North,0,6.0,11.0,20,0.00,,,0.00,meteohub,2013-03-29 18:31:00,
2013-03-29 14:37:00,60.1,16.3,30.21,North,0,2.0,11.0,18,0.00,,,0.00,meteohub,2013-03-29 18:37:00,
2013-03-29 14:43:00,60.4,15.4,30.21,West,270,11.0,11.0,17,0.00,,,0.00,meteohub,2013-03-29 18:43:00,
2013-03-29 14:50:00,60.3,16.5,30.21,SW,225,3.0,8.0,18,0.00,,,0.00,meteohub,2013-03-29 18:50:00,
2013-03-29 14:56:00,59.9,12.2,30.20,SW,225,8.0,11.0,15,0.00,,,0.00,meteohub,2013-03-29 18:56:00,
2013-03-29 15:02:00,59.5,13.3,30.20,NW,315,2.0,8.0,16,0.00,,,0.00,meteohub,2013-03-29 19:02:00,
2013-03-29 15:07:00,60.1,16.3,30.20,South,180,5.0,8.0,18,0.00,,,0.00,meteohub,2013-03-29 19:07:00,
2013-03-29 15:12:00,60.8,15.6,30.20,SW,225,4.0,8.0,17,0.00,,,0.00,meteohub,2013-03-29 19:12:00,
2013-03-29 15:17:00,61.2,13.1,30.19,NE,45,5.0,8.0,15,0.00,,,0.00,meteohub,2013-03-29 19:17:00,
2013-03-29 15:23:00,60.4,14.0,30.20,West,270,4.0,8.0,16,0.00,,,0.00,meteohub,2013-03-29 19:23:00,
2013-03-29 15:29:00,60.6,18.1,30.19,SW,225,3.0,6.0,19,0.00,,,0.00,meteohub,2013-03-29 19:29:00,
2013-03-29 15:35:00,61.9,18.0,30.19,West,270,4.0,6.0,18,0.00,,,0.00,meteohub,2013-03-29 19:35:00,
2013-03-29 15:41:00,61.7,13.6,30.18,NW,315,5.0,5.0,15,0.00,,,0.00,meteohub,2013-03-29 19:41:00,
2013-03-29 15:47:00,61.0,14.5,30.19,North,0,4.0,8.0,16,0.00,,,0.00,meteohub,2013-03-29 19:47:00,
2013-03-29 15:53:00,61.3,13.3,30.18,West,270,4.0,9.0,15,0.00,,,0.00,meteohub,2013-03-29 19:53:00,
2013-03-29 15:59:00,61.2,9.9,30.18,North,0,2.0,9.0,13,0.00,,,0.00,meteohub,2013-03-29 19:59:00,
2013-03-29 16:05:00,61.7,13.6,30.18,NW,315,4.0,8.0,15,0.00,,,0.00,meteohub,2013-03-29 20:05:00,
2013-03-29 16:11:00,62.4,12.6,30.18,SW,225,2.0,6.0,14,0.00,,,0.00,meteohub,2013-03-29 20:11:00,
2013-03-29 16:17:00,62.2,9.0,30.17,NNW,338,6.0,6.0,12,0.00,,,0.00,meteohub,2013-03-29 20:17:00,
2013-03-29 16:22:00,62.1,12.2,30.17,SE,135,3.0,7.0,14,0.00,,,0.00,meteohub,2013-03-29 20:22:00,
2013-03-29 16:27:00,61.5,10.2,30.17,West,270,8.0,8.0,13,0.00,,,0.00,meteohub,2013-03-29 20:27:00,
2013-03-29 16:33:00,61.2,9.9,30.17,North,0,8.0,9.0,13,0.00,,,0.00,meteohub,2013-03-29 20:33:00,
2013-03-29 16:39:00,61.3,10.0,30.17,West,270,4.0,9.0,13,0.00,,,0.00,meteohub,2013-03-29 20:39:00,
2013-03-29 16:45:00,61.5,10.2,30.17,North,0,7.0,8.0,13,0.00,,,0.00,meteohub,2013-03-29 20:45:00,
2013-03-29 16:51:00,61.3,10.0,30.17,SW,225,4.0,7.0,13,0.00,,,0.00,meteohub,2013-03-29 20:51:00,
2013-03-29 16:57:00,61.2,9.9,30.17,NE,45,4.0,10.0,13,0.00,,,0.00,meteohub,2013-03-29 20:57:00,
2013-03-29 17:02:00,61.5,10.2,30.17,SW,225,4.0,10.0,13,0.00,,,0.00,meteohub,2013-03-29 21:02:00,
2013-03-29 17:09:00,61.5,11.8,30.17,West,270,3.0,8.0,14,0.00,,,0.00,meteohub,2013-03-29 21:09:00,
2013-03-29 17:16:00,61.9,12.2,30.17,South,180,3.0,7.0,14,0.00,,,0.00,meteohub,2013-03-29 21:16:00,
2013-03-29 17:22:00,62.1,12.2,30.17,SW,225,7.0,7.0,14,0.00,,,0.00,meteohub,2013-03-29 21:22:00,
2013-03-29 17:27:00,61.7,10.4,30.17,SE,135,2.0,9.0,13,0.00,,,0.00,meteohub,2013-03-29 21:27:00,
2013-03-29 17:32:00,61.7,13.6,30.17,NW,315,3.0,9.0,15,0.00,,,0.00,meteohub,2013-03-29 21:32:00,
2013-03-29 17:37:00,61.9,10.4,30.17,SW,225,3.0,9.0,13,0.00,,,0.00,meteohub,2013-03-29 21:37:00,
2013-03-29 17:43:00,61.5,10.2,30.17,SW,225,2.0,7.0,13,0.00,,,0.00,meteohub,2013-03-29 21:43:00,
2013-03-29 17:49:00,61.3,11.7,30.17,West,270,6.0,6.0,14,0.00,,,0.00,meteohub,2013-03-29 21:49:00,
2013-03-29 17:55:00,60.8,11.3,30.17,West,270,2.0,8.0,14,0.00,,,0.00,meteohub,2013-03-29 21:55:00,
2013-03-29 18:01:00,60.6,12.7,30.17,WNW,293,4.0,8.0,15,0.00,,,0.00,meteohub,2013-03-29 22:01:00,
2013-03-29 18:07:00,60.3,13.8,30.17,WSW,248,4.0,4.0,16,0.00,,,0.00,meteohub,2013-03-29 22:07:00,
2013-03-29 18:12:00,59.9,13.6,30.17,South,180,2.0,10.0,16,0.00,,,0.00,meteohub,2013-03-29 22:12:00,
2013-03-29 18:19:00,59.2,12.9,30.17,South,180,2.0,10.0,16,0.00,,,0.00,meteohub,2013-03-29 22:19:00,
2013-03-29 18:25:00,58.3,12.2,30.17,SW,225,4.0,7.0,16,0.00,,,0.00,meteohub,2013-03-29 22:25:00,
2013-03-29 18:31:00,57.6,14.4,30.17,North,0,2.0,6.0,18,0.00,,,0.00,meteohub,2013-03-29 22:31:00,
2013-03-29 18:37:00,57.0,15.1,30.17,SE,135,2.0,6.0,19,0.00,,,0.00,meteohub,2013-03-29 22:37:00,
2013-03-29 18:42:00,56.5,15.8,30.17,South,180,1.0,6.0,20,0.00,,,0.00,meteohub,2013-03-29 22:42:00,
2013-03-29 18:47:00,56.1,15.6,30.18,East,90,1.0,6.0,20,0.00,,,0.00,meteohub,2013-03-29 22:47:00,
2013-03-29 18:52:00,55.9,16.5,30.17,NW,315,3.0,4.0,21,0.00,,,0.00,meteohub,2013-03-29 22:52:00,
2013-03-29 18:57:00,55.6,17.2,30.17,West,270,1.0,4.0,22,0.00,,,0.00,meteohub,2013-03-29 22:57:00,
2013-03-29 19:02:00,55.2,17.1,30.18,SE,135,0.0,4.0,22,0.00,,,0.00,meteohub,2013-03-29 23:02:00,
2013-03-29 19:08:00,54.5,19.4,30.17,SE,135,2.0,4.0,25,0.00,,,0.00,meteohub,2013-03-29 23:08:00,
2013-03-29 19:14:00,53.8,22.3,30.17,SE,135,2.0,2.0,29,0.00,,,0.00,meteohub,2013-03-29 23:14:00,
2013-03-29 19:20:00,52.7,24.4,30.18,SW,225,2.0,2.0,33,0.00,,,0.00,meteohub,2013-03-29 23:20:00,
2013-03-29 19:26:00,51.6,26.2,30.18,SW,225,2.0,2.0,37,0.00,,,0.00,meteohub,2013-03-29 23:26:00,
2013-03-29 19:32:00,50.7,26.6,30.18,SW,225,2.0,2.0,39,0.00,,,0.00,meteohub,2013-03-29 23:32:00,
2013-03-29 19:38:00,49.5,27.3,30.18,SW,225,2.0,2.0,42,0.00,,,0.00,meteohub,2013-03-29 23:38:00,
2013-03-29 19:45:00,48.4,27.0,30.18,SW,225,2.0,2.0,43,0.00,,,0.00,meteohub,2013-03-29 23:45:00,
2013-03-29 19:51:00,47.3,26.4,30.18,SW,225,2.0,2.0,44,0.00,,,0.00,meteohub,2013-03-29 23:51:00,
2013-03-29 19:57:00,46.4,26.2,30.18,SW,225,2.0,2.0,45,0.00,,,0.00,meteohub,2013-03-29 23:57:00,
2013-03-29 20:02:00,45.5,26.4,30.19,SW,225,2.0,2.0,47,0.00,,,0.00,meteohub,2013-03-30 00:02:00,
2013-03-29 20:09:00,45.0,26.4,30.19,SW,225,2.0,2.0,48,0.00,,,0.00,meteohub,2013-03-30 00:09:00,
2013-03-29 20:15:00,44.4,27.5,30.19,SW,225,2.0,2.0,51,0.00,,,0.00,meteohub,2013-03-30 00:15:00,
2013-03-29 20:21:00,44.1,27.1,30.19,SW,225,2.0,2.0,51,0.00,,,0.00,meteohub,2013-03-30 00:21:00,
2013-03-29 20:27:00,43.7,27.1,30.19,SW,225,2.0,2.0,52,0.00,,,0.00,meteohub,2013-03-30 00:27:00,
2013-03-29 20:32:00,43.5,27.1,30.19,SW,225,1.0,2.0,52,0.00,,,0.00,meteohub,2013-03-30 00:32:00,
2013-03-29 20:39:00,43.2,27.1,30.19,SW,225,1.0,2.0,53,0.00,,,0.00,meteohub,2013-03-30 00:39:00,
2013-03-29 20:45:00,43.2,27.7,30.19,SW,225,2.0,2.0,54,0.00,,,0.00,meteohub,2013-03-30 00:45:00,
2013-03-29 20:51:00,43.2,27.1,30.20,SW,225,0.0,2.0,53,0.00,,,0.00,meteohub,2013-03-30 00:51:00,
2013-03-29 20:57:00,43.2,27.1,30.20,SW,225,1.0,2.0,53,0.00,,,0.00,meteohub,2013-03-30 00:57:00,
2013-03-29 21:02:00,43.2,27.7,30.20,SW,225,0.0,2.0,54,0.00,,,0.00,meteohub,2013-03-30 01:02:00,
2013-03-29 21:07:00,43.0,27.9,30.20,SW,225,1.0,1.0,55,0.00,,,0.00,meteohub,2013-03-30 01:07:00,
2013-03-29 21:12:00,43.0,28.4,30.20,SW,225,1.0,1.0,56,0.00,,,0.00,meteohub,2013-03-30 01:12:00,
2013-03-29 21:17:00,42.8,28.2,30.20,SW,225,2.0,2.0,56,0.00,,,0.00,meteohub,2013-03-30 01:17:00,
2013-03-29 21:22:00,42.4,28.8,30.21,SW,225,2.0,2.0,58,0.00,,,0.00,meteohub,2013-03-30 01:22:00,
2013-03-29 21:28:00,41.9,27.9,30.21,SW,225,2.0,2.0,57,0.00,,,0.00,meteohub,2013-03-30 01:28:00,
2013-03-29 21:34:00,41.7,28.0,30.20,SW,225,2.0,2.0,58,0.00,,,0.00,meteohub,2013-03-30 01:34:00,
2013-03-29 21:40:00,41.4,28.0,30.20,SW,225,2.0,2.0,59,0.00,,,0.00,meteohub,2013-03-30 01:40:00,
2013-03-29 21:47:00,40.6,27.5,30.21,SW,225,1.0,2.0,59,0.00,,,0.00,meteohub,2013-03-30 01:47:00,
2013-03-29 21:52:00,40.3,27.5,30.21,SW,225,2.0,2.0,60,0.00,,,0.00,meteohub,2013-03-30 01:52:00,
2013-03-29 21:57:00,40.1,27.3,30.21,SW,225,1.0,2.0,60,0.00,,,0.00,meteohub,2013-03-30 01:57:00,
2013-03-29 22:02:00,39.6,27.1,30.21,SW,225,1.0,2.0,61,0.00,,,0.00,meteohub,2013-03-30 02:02:00,
2013-03-29 22:08:00,38.7,26.4,30.21,SW,225,1.0,2.0,61,0.00,,,0.00,meteohub,2013-03-30 02:08:00,
2013-03-29 22:14:00,40.8,28.4,30.21,WSW,248,1.0,2.0,61,0.00,,,0.00,meteohub,2013-03-30 02:14:00,
2013-03-29 22:20:00,38.3,26.4,30.22,SW,225,1.0,2.0,62,0.00,,,0.00,meteohub,2013-03-30 02:20:00,
2013-03-29 22:26:00,38.1,26.2,30.22,SW,225,1.0,2.0,62,0.00,,,0.00,meteohub,2013-03-30 02:26:00,
2013-03-29 22:32:00,37.9,26.1,30.22,SW,225,0.0,2.0,62,0.00,,,0.00,meteohub,2013-03-30 02:32:00,
2013-03-29 22:37:00,37.8,25.9,30.22,SW,225,0.0,2.0,62,0.00,,,0.00,meteohub,2013-03-30 02:37:00,
2013-03-29 22:42:00,37.6,25.7,30.22,SW,225,0.0,2.0,62,0.00,,,0.00,meteohub,2013-03-30 02:42:00,
2013-03-29 22:48:00,39.2,28.0,30.22,WSW,248,0.0,1.0,64,0.00,,,0.00,meteohub,2013-03-30 02:48:00,
2013-03-29 22:54:00,37.2,26.6,30.22,SW,225,2.0,2.0,65,0.00,,,0.00,meteohub,2013-03-30 02:54:00,
2013-03-29 23:00:00,36.9,26.2,30.22,SW,225,2.0,2.0,65,0.00,,,0.00,meteohub,2013-03-30 03:00:00,
2013-03-29 23:06:00,36.5,25.9,30.22,SW,225,1.0,2.0,65,0.00,,,0.00,meteohub,2013-03-30 03:06:00,
2013-03-29 23:12:00,36.1,26.2,30.23,SW,225,2.0,2.0,67,0.00,,,0.00,meteohub,2013-03-30 03:12:00,
2013-03-29 23:17:00,36.0,26.1,30.23,SW,225,2.0,2.0,67,0.00,,,0.00,meteohub,2013-03-30 03:17:00,
2013-03-29 23:24:00,35.6,26.1,30.22,SW,225,1.0,2.0,68,0.00,,,0.00,meteohub,2013-03-30 03:24:00,
2013-03-29 23:30:00,35.4,25.9,30.23,SW,225,1.0,2.0,68,0.00,,,0.00,meteohub,2013-03-30 03:30:00,
2013-03-29 23:36:00,35.2,26.1,30.23,North,0,1.0,2.0,69,0.00,,,0.00,meteohub,2013-03-30 03:36:00,
2013-03-29 23:42:00,35.4,27.0,30.23,North,0,2.0,2.0,71,0.00,,,0.00,meteohub,2013-03-30 03:42:00,
2013-03-29 23:47:00,35.6,27.1,30.23,North,0,2.0,2.0,71,0.00,,,0.00,meteohub,2013-03-30 03:47:00,
2013-03-29 23:52:00,35.4,27.0,30.23,North,0,1.0,2.0,71,0.00,,,0.00,meteohub,2013-03-30 03:52:00,
2013-03-29 23:57:00,35.6,27.5,30.22,North,0,0.0,2.0,72,0.00,,,0.00,meteohub,2013-03-30 03:57:00,